createdAt,value
2022-08-24T00:01:58.983Z,27.90
2022-08-24T00:04:28.318Z,23.57
2022-08-24T00:07:00.266Z,23.37
2022-08-24T00:09:29.858Z,27.47
2022-08-24T00:11:57.999Z,26.57
2022-08-24T00:14:26.327Z,25.00
2022-08-24T00:16:55.281Z,24.10
2022-08-24T00:19:23.544Z,24.57
2022-08-24T00:21:52.236Z,22.80
2022-08-24T00:24:20.632Z,27.80
2022-08-24T00:26:50.240Z,24.60
2022-08-24T00:29:19.381Z,25.77
2022-08-24T00:31:47.831Z,22.67
2022-08-24T00:34:17.819Z,28.10
2022-08-24T00:36:46.669Z,23.60
2022-08-24T00:39:15.045Z,24.97
2022-08-24T00:41:44.988Z,24.53
2022-08-24T00:44:16.593Z,25.50
2022-08-24T00:46:49.425Z,24.40
2022-08-24T00:49:24.819Z,23.47
2022-08-24T00:52:04.687Z,23.63
2022-08-24T00:54:34.976Z,23.83
2022-08-24T00:57:07.511Z,24.33
2022-08-24T00:59:43.783Z,24.10
2022-08-24T01:02:16.788Z,24.00
2022-08-24T01:04:50.246Z,23.33
2022-08-24T01:07:18.716Z,25.43
2022-08-24T01:09:47.073Z,24.00
2022-08-24T01:12:15.334Z,24.60
2022-08-24T01:14:45.452Z,27.03
2022-08-24T01:17:35.037Z,28.13
2022-08-24T01:20:09.293Z,27.83
2022-08-24T01:22:51.033Z,27.03
2022-08-24T01:25:21.352Z,28.67
2022-08-24T01:27:52.910Z,30.20
2022-08-24T01:30:22.341Z,30.40
2022-08-24T01:33:02.640Z,30.93
2022-08-24T01:35:32.475Z,30.30
2022-08-24T01:38:03.894Z,31.90
2022-08-24T01:40:38.249Z,30.93
2022-08-24T01:43:08.378Z,29.63
2022-08-24T01:45:37.421Z,30.97
2022-08-24T01:48:06.019Z,28.70
2022-08-24T01:50:35.015Z,30.63
2022-08-24T01:53:06.276Z,31.63
2022-08-24T01:55:36.953Z,29.20
2022-08-24T01:58:05.587Z,32.53
2022-08-24T02:00:35.032Z,34.17
2022-08-24T02:03:03.837Z,32.83
2022-08-24T02:05:32.219Z,32.57
2022-08-24T02:08:00.407Z,32.30
2022-08-24T02:10:29.658Z,35.33
2022-08-24T02:13:00.106Z,33.73
2022-08-24T02:15:31.409Z,37.90
2022-08-24T02:18:00.401Z,39.90
2022-08-24T02:20:29.320Z,43.23
2022-08-24T02:22:58.196Z,38.47
2022-08-24T02:25:30.132Z,39.10
2022-08-24T02:28:00.664Z,38.70
2022-08-24T02:30:30.016Z,40.10
2022-08-24T02:32:59.111Z,40.13
2022-08-24T02:35:29.462Z,37.00
2022-08-24T02:37:58.650Z,35.97
2022-08-24T02:40:27.342Z,36.23
2022-08-24T02:42:55.683Z,34.07
2022-08-24T02:45:25.491Z,33.87
2022-08-24T02:47:53.798Z,37.70
2022-08-24T02:50:21.975Z,34.00
2022-08-24T02:52:50.321Z,37.50
2022-08-24T02:55:20.508Z,37.30
2022-08-24T02:57:50.552Z,40.00
2022-08-24T03:00:21.450Z,34.40
2022-08-24T03:02:51.563Z,36.77
2022-08-24T03:05:20.344Z,35.97
2022-08-24T03:07:49.623Z,40.87
2022-08-24T03:10:21.395Z,39.60
2022-08-24T03:12:50.439Z,32.67
2022-08-24T03:15:21.723Z,35.50
2022-08-24T03:17:52.219Z,33.88
2022-08-24T03:20:22.824Z,35.47
2022-08-24T03:22:51.152Z,35.00
2022-08-24T03:25:20.696Z,34.10
2022-08-24T03:27:48.919Z,37.40
2022-08-24T03:30:19.249Z,35.47
2022-08-24T03:32:47.502Z,39.37
2022-08-24T03:35:18.659Z,36.50
2022-08-24T03:37:47.723Z,37.60
2022-08-24T03:40:24.929Z,35.67
2022-08-24T03:42:54.291Z,35.20
2022-08-24T03:45:23.595Z,34.90
2022-08-24T03:47:52.020Z,37.38
2022-08-24T03:50:22.057Z,32.80
2022-08-24T03:52:50.364Z,34.90
2022-08-24T03:55:18.668Z,40.42
2022-08-24T03:57:47.205Z,36.25
2022-08-24T04:00:16.205Z,36.75
2022-08-24T04:02:45.420Z,36.40
2022-08-24T04:05:14.357Z,44.10
2022-08-24T04:07:43.924Z,37.00
2022-08-24T04:10:15.223Z,34.10
2022-08-24T04:12:43.512Z,34.67
2022-08-24T04:15:13.153Z,32.97
2022-08-24T04:17:41.381Z,34.30
2022-08-24T04:20:10.796Z,33.70
2022-08-24T04:22:39.017Z,39.10
2022-08-24T04:25:10.061Z,40.23
2022-08-24T04:27:38.873Z,32.90
2022-08-24T04:30:08.100Z,33.00
2022-08-24T04:32:36.445Z,33.67
2022-08-24T04:35:06.655Z,33.60
2022-08-24T04:37:34.817Z,35.10
2022-08-24T04:40:03.212Z,37.30
2022-08-24T04:42:33.933Z,35.87
2022-08-24T04:45:02.941Z,33.23
2022-08-24T04:47:31.126Z,34.43
2022-08-24T04:49:59.292Z,34.97
2022-08-24T04:52:27.485Z,33.40
2022-08-24T04:54:55.753Z,36.83
2022-08-24T04:57:23.923Z,35.60
2022-08-24T04:59:57.528Z,34.43
2022-08-24T05:02:26.002Z,32.28
2022-08-24T05:04:55.376Z,36.43
2022-08-24T05:07:23.621Z,33.33
2022-08-24T05:09:52.381Z,37.23
2022-08-24T05:12:21.143Z,32.57
2022-08-24T05:14:50.636Z,34.43
2022-08-24T05:17:20.164Z,30.60
2022-08-24T05:19:49.239Z,33.40
2022-08-24T05:22:17.433Z,31.13
2022-08-24T05:24:45.648Z,28.80
2022-08-24T05:27:14.153Z,32.40
2022-08-24T05:29:42.716Z,32.17
2022-08-24T05:32:11.286Z,31.90
2022-08-24T05:34:40.847Z,31.00
2022-08-24T05:37:10.373Z,30.10
2022-08-24T05:39:38.884Z,31.10
2022-08-24T05:42:07.240Z,30.00
2022-08-24T05:44:35.408Z,29.30
2022-08-24T05:47:03.840Z,31.87
2022-08-24T05:49:32.153Z,28.30
2022-08-24T05:52:02.246Z,30.10
2022-08-24T05:54:30.395Z,30.50
2022-08-24T05:57:04.534Z,30.63
2022-08-24T05:59:33.327Z,29.97
2022-08-24T06:02:01.620Z,28.10
2022-08-24T06:04:30.017Z,28.10
2022-08-24T06:06:58.961Z,29.67
2022-08-24T06:09:28.481Z,32.37
2022-08-24T06:11:56.700Z,30.73
2022-08-24T06:14:27.009Z,29.00
2022-08-24T06:16:55.568Z,28.90
2022-08-24T06:19:26.930Z,28.83
2022-08-24T06:21:56.342Z,30.07
2022-08-24T06:24:45.408Z,27.13
2022-08-24T06:27:21.264Z,27.67
2022-08-24T06:29:50.056Z,31.27
2022-08-24T06:32:18.416Z,29.73
2022-08-24T06:34:46.696Z,26.77
2022-08-24T06:37:16.818Z,27.23
2022-08-24T06:39:45.333Z,27.20
2022-08-24T06:42:14.954Z,26.10
2022-08-24T06:44:43.383Z,26.33
2022-08-24T06:47:12.449Z,25.90
2022-08-24T06:49:40.627Z,28.07
2022-08-24T06:52:10.141Z,26.20
2022-08-24T06:54:38.595Z,27.97
2022-08-24T06:57:07.606Z,24.67
2022-08-24T06:59:37.221Z,24.50
2022-08-24T07:02:05.532Z,25.93
2022-08-24T07:04:34.687Z,26.00
2022-08-24T07:07:02.884Z,25.47
2022-08-24T07:09:33.355Z,24.43
2022-08-24T07:12:01.784Z,24.37
2022-08-24T07:14:29.976Z,25.03
2022-08-24T07:16:59.662Z,28.10
2022-08-24T07:19:28.009Z,24.13
2022-08-24T07:21:58.222Z,23.67
2022-08-24T07:24:26.743Z,23.13
2022-08-24T07:26:55.163Z,21.97
2022-08-24T07:29:46.421Z,20.97
2022-08-24T07:32:12.849Z,21.60
2022-08-24T07:34:40.998Z,32.20
2022-08-24T07:37:09.199Z,18.70
2022-08-24T07:39:37.385Z,18.47
2022-08-24T07:42:16.067Z,16.03
2022-08-24T07:44:49.101Z,18.30
2022-08-24T07:47:37.410Z,21.80
2022-08-24T07:50:07.608Z,18.77
2022-08-24T07:52:35.832Z,16.13
2022-08-24T07:55:04.457Z,15.60
2022-08-24T07:57:32.919Z,15.50
2022-08-24T08:00:01.533Z,15.03
2022-08-24T08:02:34.939Z,14.40
2022-08-24T08:05:04.868Z,14.20
2022-08-24T08:07:33.109Z,21.20
2022-08-24T08:10:02.451Z,18.13
2022-08-24T08:12:30.617Z,15.70
2022-08-24T08:14:58.832Z,15.33
2022-08-24T08:17:27.348Z,16.37
2022-08-24T08:19:56.908Z,19.33
2022-08-24T08:22:42.404Z,16.67
2022-08-24T08:25:10.775Z,18.87
2022-08-24T08:27:39.025Z,19.47
2022-08-24T08:30:08.394Z,16.80
2022-08-24T08:32:36.615Z,20.40
2022-08-24T08:35:07.003Z,17.00
2022-08-24T08:40:06.658Z,19.23
2022-08-24T08:42:49.171Z,19.97
2022-08-24T08:45:27.716Z,14.60
2022-08-24T08:48:38.445Z,13.33
2022-08-24T08:51:43.796Z,12.07
2022-08-24T08:54:24.423Z,12.73
2022-08-24T08:57:17.720Z,12.77
2022-08-24T09:00:01.861Z,15.30
2022-08-24T09:02:53.462Z,10.07
2022-08-24T09:06:00.160Z,9.20
2022-08-24T09:08:41.979Z,11.23
2022-08-24T09:11:24.041Z,11.20
2022-08-24T09:14:17.361Z,11.67
2022-08-24T09:17:09.580Z,12.10
2022-08-24T09:20:00.568Z,14.53
2022-08-24T09:22:28.956Z,14.30
2022-08-24T09:25:20.359Z,13.90
2022-08-24T09:28:14.590Z,13.47
2022-08-24T09:31:03.624Z,12.90
2022-08-24T09:33:38.408Z,13.77
2022-08-24T09:36:10.207Z,14.30
2022-08-24T09:39:00.855Z,11.40
2022-08-24T09:42:07.080Z,12.10
2022-08-24T09:45:13.228Z,11.50
2022-08-24T09:48:04.059Z,11.80
2022-08-24T09:51:11.840Z,12.70
2022-08-24T09:54:14.236Z,12.93
2022-08-24T09:57:11.559Z,12.10
2022-08-24T10:00:10.000Z,12.17
2022-08-24T10:03:00.240Z,12.03
2022-08-24T10:05:47.301Z,11.30
2022-08-24T10:08:27.222Z,11.90
2022-08-24T10:11:06.695Z,12.50
2022-08-24T10:13:47.746Z,12.50
2022-08-24T10:16:28.422Z,12.00
2022-08-24T10:19:08.205Z,12.23
2022-08-24T10:21:51.372Z,9.80
2022-08-24T10:24:46.605Z,9.97
2022-08-24T10:27:32.355Z,8.77
2022-08-24T10:30:35.204Z,8.17
2022-08-24T10:33:15.612Z,9.57
2022-08-24T10:35:59.530Z,9.43
2022-08-24T10:38:53.259Z,9.80
2022-08-24T10:42:00.012Z,10.60
2022-08-24T10:44:46.992Z,10.17
2022-08-24T10:47:22.370Z,10.47
2022-08-24T10:50:30.874Z,11.20
2022-08-24T10:53:23.848Z,11.87
2022-08-24T10:56:09.280Z,10.73
2022-08-24T10:59:09.845Z,11.27
2022-08-24T11:01:39.463Z,10.43
2022-08-24T11:04:11.983Z,10.47
2022-08-24T11:06:43.655Z,10.60
2022-08-24T11:09:18.633Z,10.60
2022-08-24T11:11:49.983Z,9.37
2022-08-24T11:14:29.126Z,9.83
2022-08-24T11:17:17.312Z,11.60
2022-08-24T11:19:47.036Z,11.07
2022-08-24T11:22:31.367Z,11.50
2022-08-24T11:25:02.235Z,10.33
2022-08-24T11:27:35.605Z,10.10
2022-08-24T11:30:10.963Z,9.47
2022-08-24T11:32:44.006Z,10.23
2022-08-24T11:35:26.545Z,9.93
2022-08-24T11:37:57.789Z,9.10
2022-08-24T11:40:29.354Z,8.80
2022-08-24T11:43:13.794Z,8.50
2022-08-24T11:45:46.532Z,8.90
2022-08-24T11:48:36.127Z,9.10
2022-08-24T11:51:15.724Z,8.83
2022-08-24T11:53:56.624Z,8.07
2022-08-24T11:56:33.086Z,7.90
2022-08-24T11:59:11.174Z,7.23
2022-08-24T12:01:45.864Z,6.63
2022-08-24T12:04:34.471Z,7.17
2022-08-24T12:07:20.897Z,7.17
2022-08-24T12:10:03.875Z,8.07
2022-08-24T12:12:37.756Z,8.40
2022-08-24T12:15:12.132Z,8.33
2022-08-24T12:17:46.690Z,8.53
2022-08-24T12:20:24.141Z,11.17
2022-08-24T12:22:57.873Z,10.17
2022-08-24T12:25:45.628Z,10.60
2022-08-24T12:28:16.018Z,11.50
2022-08-24T12:30:44.461Z,10.97
2022-08-24T12:33:15.492Z,10.60
2022-08-24T12:35:47.574Z,11.43
2022-08-24T12:38:22.373Z,9.90
2022-08-24T12:40:56.851Z,10.10
2022-08-24T12:43:32.610Z,11.00
2022-08-24T12:46:02.414Z,8.60
2022-08-24T12:48:37.602Z,8.50
2022-08-24T12:51:19.775Z,7.73
2022-08-24T12:54:13.500Z,8.50
2022-08-24T12:57:02.523Z,8.23
2022-08-24T12:59:36.769Z,7.50
2022-08-24T13:02:09.546Z,7.70
2022-08-24T13:04:41.716Z,7.97
2022-08-24T13:07:26.751Z,9.00
2022-08-24T13:10:10.239Z,8.03
2022-08-24T13:13:09.422Z,8.47
2022-08-24T13:16:03.195Z,8.20
2022-08-24T13:18:51.608Z,7.53
2022-08-24T13:21:45.833Z,8.33
2022-08-24T13:24:53.450Z,8.73
2022-08-24T13:28:12.608Z,7.80
2022-08-24T13:31:25.646Z,8.50
2022-08-24T13:34:00.143Z,8.47
2022-08-24T13:36:45.623Z,8.93
2022-08-24T13:39:35.750Z,8.23
2022-08-24T13:42:19.856Z,8.60
2022-08-24T13:45:02.664Z,8.60
2022-08-24T13:47:45.867Z,7.77
2022-08-24T13:50:31.287Z,7.93
2022-08-24T13:53:31.267Z,7.70
2022-08-24T13:56:33.026Z,8.60
2022-08-24T13:59:09.878Z,8.17
2022-08-24T14:01:49.930Z,7.80
2022-08-24T14:04:33.564Z,7.87
2022-08-24T14:07:15.687Z,6.73
2022-08-24T14:09:56.160Z,6.60
2022-08-24T14:12:39.994Z,7.53
2022-08-24T14:15:20.941Z,8.17
2022-08-24T14:17:56.759Z,8.80
2022-08-24T14:20:50.412Z,9.57
2022-08-24T14:23:33.848Z,11.20
2022-08-24T14:26:53.016Z,9.80
2022-08-24T14:29:35.033Z,10.10
2022-08-24T14:32:29.439Z,9.37
2022-08-24T14:35:19.693Z,9.00
2022-08-24T14:38:01.632Z,8.53
2022-08-24T14:40:37.201Z,7.70
2022-08-24T14:43:28.563Z,7.63
2022-08-24T14:46:06.520Z,7.10
2022-08-24T14:48:43.496Z,8.23
2022-08-24T14:51:25.367Z,7.73
2022-08-24T14:54:02.158Z,8.17
2022-08-24T14:56:47.293Z,7.97
2022-08-24T14:59:25.455Z,8.60
2022-08-24T15:02:16.430Z,7.83
2022-08-24T15:04:49.495Z,8.77
2022-08-24T15:07:36.515Z,7.40
2022-08-24T15:10:15.455Z,6.63
2022-08-24T15:12:49.935Z,7.37
2022-08-24T15:15:31.227Z,7.53
2022-08-24T15:18:06.512Z,7.30
2022-08-24T15:20:59.437Z,7.90
2022-08-24T15:23:45.479Z,7.70
2022-08-24T15:26:20.780Z,7.23
2022-08-24T15:28:56.924Z,7.23
2022-08-24T15:31:29.245Z,7.40
2022-08-24T15:33:59.599Z,7.30
2022-08-24T15:36:30.145Z,7.73
2022-08-24T15:38:58.485Z,7.37
2022-08-24T15:41:31.835Z,7.87
2022-08-24T15:44:05.163Z,7.67
2022-08-24T15:46:37.168Z,8.63
2022-08-24T15:49:09.374Z,8.53
2022-08-24T15:51:47.492Z,9.40
2022-08-24T15:54:28.500Z,9.13
2022-08-24T15:56:59.317Z,10.37
2022-08-24T15:59:31.248Z,11.30
2022-08-24T16:02:28.623Z,11.13
2022-08-24T16:05:18.711Z,11.43
2022-08-24T16:08:07.908Z,11.70
2022-08-24T16:10:40.482Z,10.90
2022-08-24T16:13:13.326Z,11.10
2022-08-24T16:15:49.738Z,10.83
2022-08-24T16:18:20.286Z,10.70
2022-08-24T16:20:50.959Z,10.83
2022-08-24T16:23:25.837Z,10.10
2022-08-24T16:26:25.651Z,10.97
2022-08-24T16:28:54.972Z,10.67
2022-08-24T16:31:51.769Z,11.40
2022-08-24T16:34:30.160Z,11.40
2022-08-24T16:36:58.556Z,11.43
2022-08-24T16:39:27.286Z,12.57
2022-08-24T16:41:58.607Z,12.00
2022-08-24T16:44:32.376Z,12.30
2022-08-24T16:47:02.775Z,12.23
2022-08-24T16:49:31.905Z,11.60
2022-08-24T16:52:00.128Z,11.90
2022-08-24T16:54:28.320Z,11.13
2022-08-24T16:56:57.877Z,11.43
2022-08-24T16:59:29.262Z,12.07
2022-08-24T17:01:57.873Z,12.70
2022-08-24T17:04:27.672Z,11.73
2022-08-24T17:06:57.798Z,12.63
2022-08-24T17:09:25.981Z,12.20
2022-08-24T17:11:54.232Z,12.07
2022-08-24T17:14:22.422Z,10.23
2022-08-24T17:16:50.869Z,11.60
2022-08-24T17:19:20.679Z,11.00
2022-08-24T17:21:50.486Z,11.90
2022-08-24T17:24:22.183Z,11.80
2022-08-24T17:26:52.297Z,12.00
2022-08-24T17:29:20.818Z,11.30
2022-08-24T17:31:50.177Z,11.50
2022-08-24T17:34:20.451Z,12.30
2022-08-24T17:36:51.583Z,13.30
2022-08-24T17:39:20.832Z,12.43
2022-08-24T17:41:49.320Z,13.40
2022-08-24T17:44:23.644Z,13.70
2022-08-24T17:46:53.193Z,14.13
2022-08-24T17:49:22.249Z,13.97
2022-08-24T17:51:52.174Z,12.73
2022-08-24T17:54:20.397Z,13.17
2022-08-24T17:56:50.936Z,11.70
2022-08-24T17:59:27.050Z,13.33
2022-08-24T18:01:57.127Z,13.30
2022-08-24T18:04:27.619Z,13.80
2022-08-24T18:06:58.241Z,14.80
2022-08-24T18:09:31.176Z,12.70
2022-08-24T18:12:04.168Z,12.07
2022-08-24T18:14:34.514Z,12.43
2022-08-24T18:17:05.391Z,12.07
2022-08-24T18:19:34.956Z,14.23
2022-08-24T18:22:05.960Z,12.43
2022-08-24T18:24:34.968Z,13.90
2022-08-24T18:27:10.376Z,13.00
2022-08-24T18:29:40.294Z,11.87
2022-08-24T18:32:11.851Z,13.70
2022-08-24T18:34:40.703Z,13.80
2022-08-24T18:37:10.304Z,13.27
2022-08-24T18:39:38.480Z,13.70
2022-08-24T18:42:09.178Z,13.20
2022-08-24T18:44:38.799Z,13.67
2022-08-24T18:47:07.189Z,14.50
2022-08-24T18:49:36.120Z,14.80
2022-08-24T18:52:05.076Z,13.67
2022-08-24T18:54:37.796Z,13.47
2022-08-24T18:57:07.058Z,13.73
2022-08-24T18:59:35.971Z,14.23
2022-08-24T19:02:32.004Z,14.67
2022-08-24T19:05:03.581Z,14.93
2022-08-24T19:07:33.769Z,14.43
2022-08-24T19:10:04.469Z,13.67
2022-08-24T19:12:35.156Z,13.60
2022-08-24T19:15:03.691Z,13.60
2022-08-24T19:17:32.260Z,13.67
2022-08-24T19:20:00.597Z,13.63
2022-08-24T19:22:30.676Z,15.13
2022-08-24T19:24:59.632Z,15.73
2022-08-24T19:27:29.182Z,13.83
2022-08-24T19:29:58.890Z,15.63
2022-08-24T19:32:30.602Z,14.67
2022-08-24T19:35:00.416Z,14.10
2022-08-24T19:37:28.636Z,14.00
2022-08-24T19:39:57.929Z,13.93
2022-08-24T19:42:29.064Z,15.33
2022-08-24T19:45:18.859Z,14.97
2022-08-24T19:47:47.232Z,14.40
2022-08-24T19:50:21.212Z,15.50
2022-08-24T19:52:49.888Z,14.30
2022-08-24T19:55:18.120Z,14.90
2022-08-24T19:57:54.488Z,15.60
2022-08-24T20:00:26.745Z,16.20
2022-08-24T20:02:57.019Z,17.20
2022-08-24T20:05:28.736Z,15.77
2022-08-24T20:07:57.651Z,16.23
2022-08-24T20:10:26.222Z,16.67
2022-08-24T20:12:55.976Z,16.93
2022-08-24T20:15:25.047Z,17.70
2022-08-24T20:17:56.522Z,15.93
2022-08-24T20:20:26.149Z,14.53
2022-08-24T20:22:54.583Z,16.23
2022-08-24T20:25:22.785Z,15.30
2022-08-24T20:28:02.173Z,15.50
2022-08-24T20:30:40.873Z,16.50
2022-08-24T20:33:15.461Z,18.77
2022-08-24T20:35:44.178Z,19.53
2022-08-24T20:38:15.569Z,18.63
2022-08-24T20:40:43.968Z,17.03
2022-08-24T20:43:12.737Z,17.90
2022-08-24T20:45:42.763Z,17.17
2022-08-24T20:48:13.133Z,15.87
2022-08-24T20:50:43.621Z,16.80
2022-08-24T20:53:12.440Z,19.95
2022-08-24T20:55:41.483Z,18.17
2022-08-24T20:58:10.186Z,18.60
2022-08-24T21:00:41.024Z,17.83
2022-08-24T21:03:10.863Z,17.85
2022-08-24T21:05:40.253Z,17.25
2022-08-24T21:08:08.523Z,17.40
2022-08-24T21:10:36.756Z,17.40
2022-08-24T21:13:05.930Z,17.67
2022-08-24T21:15:34.871Z,18.27
2022-08-24T21:18:03.410Z,17.40
2022-08-24T21:20:33.633Z,20.90
2022-08-24T21:23:01.876Z,17.95
2022-08-24T21:25:31.046Z,18.35
2022-08-24T21:28:03.019Z,17.30
2022-08-24T21:30:34.830Z,17.48
2022-08-24T21:33:24.400Z,17.15
2022-08-24T21:35:55.006Z,22.00
2022-08-24T21:38:23.400Z,22.60
2022-08-24T21:40:54.319Z,20.17
2022-08-24T21:43:22.534Z,17.25
2022-08-24T21:45:51.564Z,18.13
2022-08-24T21:48:20.327Z,16.67
2022-08-24T21:50:48.764Z,17.50
2022-08-24T21:53:18.519Z,16.77
2022-08-24T21:55:47.073Z,15.88
2022-08-24T21:58:15.268Z,17.08
2022-08-24T22:00:43.867Z,17.23
2022-08-24T22:03:12.189Z,16.70
2022-08-24T22:05:40.523Z,17.30
2022-08-24T22:08:08.791Z,17.00
2022-08-24T22:10:38.437Z,15.70
2022-08-24T22:13:06.994Z,15.15
2022-08-24T22:15:36.275Z,17.42
2022-08-24T22:18:04.570Z,19.55
2022-08-24T22:20:32.807Z,17.45
2022-08-24T22:23:01.100Z,17.02
2022-08-24T22:25:30.118Z,18.67
2022-08-24T22:27:59.827Z,18.38
2022-08-24T22:30:27.995Z,18.00
2022-08-24T22:32:56.249Z,15.52
2022-08-24T22:35:24.414Z,16.10
2022-08-24T22:37:53.068Z,15.55
2022-08-24T22:40:21.528Z,19.20
2022-08-24T22:42:49.748Z,17.35
2022-08-24T22:45:19.449Z,16.60
2022-08-24T22:47:47.656Z,16.35
2022-08-24T22:50:15.868Z,22.17
2022-08-24T22:52:44.325Z,18.25
2022-08-24T22:55:13.156Z,17.52
2022-08-24T22:57:41.364Z,16.67
2022-08-24T23:00:11.457Z,15.95
2022-08-24T23:02:46.498Z,16.60
2022-08-24T23:05:14.798Z,17.58
2022-08-24T23:07:43.080Z,21.50
2022-08-24T23:10:14.548Z,22.13
2022-08-24T23:12:42.752Z,18.58
2022-08-24T23:15:11.516Z,15.93
2022-08-24T23:17:39.700Z,18.98
2022-08-24T23:20:10.383Z,18.55
2022-08-24T23:22:43.521Z,17.20
2022-08-24T23:25:13.858Z,18.65
2022-08-24T23:27:46.587Z,17.90
2022-08-24T23:30:18.040Z,15.80
2022-08-24T23:32:46.295Z,16.65
2022-08-24T23:35:16.088Z,18.70
2022-08-24T23:37:44.369Z,21.92
2022-08-24T23:40:13.468Z,19.90
2022-08-24T23:42:41.725Z,18.90
2022-08-24T23:45:12.236Z,17.88
2022-08-24T23:47:41.266Z,17.10
2022-08-24T23:50:11.462Z,18.63
2022-08-24T23:52:41.535Z,18.35
2022-08-24T23:55:21.648Z,18.48
2022-08-24T23:57:50.803Z,18.70
